Sumise Maru No.8 — JK5581 — position and weather

sailwx.info

Track history (hours):
 
Tides and Currents Weather Stations Pressure Air Temp Water Temp Dewpoint Dewpoint Depression Visibility Wind Speed Wind Dir Waves Ship Positions

Sumise Maru No.8

Last reported at 2017-Nov-20 00:30 UTC. Time now 2017-Nov-22 18:05 UTC.
Position N 35°18' E 139°45'.

Length 99 m; draft 7.2 m.

Type: Cargo ship. MMSI: 431401788.

Date/timePositionNaut miles runAvg speedWind from/ knotsBaromVisibWave heightAir tempDewpointWater temp
2017-Nov-20 00:30N 35°18' E 139°45'510.6
2017-Nov-20 00:00N 35°13' E 139°47'611.5
2017-Nov-19 23:30N 35°07' E 139°44'612.2
2017-Nov-19 23:00N 35°02' E 139°40'612.1
2017-Nov-19 22:30N 34°58' E 139°34'23410.8
2017-Nov-19 00:51N 33°58' E 135°00'412.7
2017-Nov-19 00:30N 34°02' E 135°01'612.0
2017-Nov-19 00:01N 34°08' E 135°02'611.6
2017-Nov-18 23:30N 34°14' E 135°05'2 4.3
2017-Nov-18 22:58N 34°14' E 135°08'0 0.1
2017-Nov-18 22:28N 34°14' E 135°08'0 0.0
2017-Nov-18 21:58N 34°14' E 135°08'0 0.0
2017-Nov-18 21:28N 34°14' E 135°08'0 0.0
2017-Nov-18 20:58N 34°14' E 135°08'0 0.0
2017-Nov-18 20:28N 34°14' E 135°08'0 0.0
2017-Nov-18 19:58N 34°14' E 135°08'0 0.0
2017-Nov-18 19:30N 34°14' E 135°08'0 0.1
2017-Nov-18 19:00N 34°14' E 135°08'2 4.5
2017-Nov-18 18:30N 34°15' E 135°05'2 4.3
2017-Nov-18 18:00N 34°14' E 135°03'1 2.2
2017-Nov-18 17:30N 34°13' E 135°03'3 5.3
2017-Nov-18 17:01N 34°14' E 135°00'4 8.0
2017-Nov-18 16:30N 34°18' E 134°58'5 9.3
2017-Nov-18 16:00N 34°22' E 134°60'713.3
2017-Nov-18 15:30N 34°29' E 135°01'713.6
2017-Nov-18 15:00N 34°36' E 135°03'713.2
2017-Nov-18 14:30N 34°37' E 134°55'713.4
2017-Nov-18 14:00N 34°39' E 134°47'6 0.4
2017-Nov-17 21:40N 34°37' E 134°54'215.3
2017-Nov-17 21:30N 34°38' E 134°57'715.0
2017-Nov-17 21:00N 34°36' E 135°06'713.7
2017-Nov-17 20:30N 34°36' E 135°15'612.4
2017-Nov-17 20:00N 34°37' E 135°22'5 9.4
2017-Nov-17 19:30N 34°40' E 135°27'0 0.2
2017-Nov-17 18:56N 34°40' E 135°27'0 0.0
2017-Nov-17 18:26N 34°40' E 135°27'0 0.0
2017-Nov-17 17:56N 34°40' E 135°27'0 0.0
2017-Nov-17 17:26N 34°40' E 135°27'0 0.0
2017-Nov-17 16:56N 34°40' E 135°27'0 0.0
2017-Nov-17 16:26N 34°40' E 135°27'0 0.0
2017-Nov-17 15:44N 34°40' E 135°27'0 0.0
2017-Nov-17 15:26N 34°40' E 135°27'0 0.0
2017-Nov-17 14:02N 34°40' E 135°27'0 0.0
2017-Nov-17 13:56N 34°40' E 135°27'0 0.0
2017-Nov-17 13:26N 34°40' E 135°27'0 0.0
2017-Nov-17 12:08N 34°40' E 135°27'0 0.0
2017-Nov-17 11:44N 34°40' E 135°27'0 0.0
2017-Nov-17 11:20N 34°40' E 135°27'0 0.0
2017-Nov-17 10:32N 34°40' E 135°27'0 0.0
2017-Nov-17 10:26N 34°40' E 135°27'0 0.0
2017-Nov-17 09:56N 34°40' E 135°27'0 0.0
2017-Nov-17 09:30N 34°40' E 135°27'0 0.0
2017-Nov-17 09:01N 34°40' E 135°27'3 5.3
2017-Nov-17 08:30N 34°39' E 135°24'511.0
2017-Nov-17 08:00N 34°36' E 135°18'612.1
2017-Nov-17 07:31N 34°35' E 135°11'612.8
2017-Nov-17 07:01N 34°36' E 135°03'712.2
2017-Nov-17 06:29N 34°37' E 134°56'1 0.1
2017-Nov-16 16:17N 34°37' E 134°55'411.7
2017-Nov-16 15:59N 34°38' E 134°59'4 9.0
2017-Nov-16 15:31N 34°36' E 135°04'5 9.9
2017-Nov-16 15:00N 34°31' E 135°04'612.4
2017-Nov-16 14:30N 34°25' E 135°02'711.9
2017-Nov-16 13:53N 34°18' E 134°59'411.0
2017-Nov-16 13:30N 34°14' E 134°59'612.4
2017-Nov-16 13:00N 34°08' E 134°59'712.4
2017-Nov-16 12:27N 34°01' E 134°59'224 9.8
2017-Nov-15 13:36N 34°53' E 139°23'311.6
2017-Nov-15 13:23N 34°54' E 139°25'411.6
2017-Nov-15 13:00N 34°57' E 139°29'611.7
2017-Nov-15 12:30N 35°00' E 139°35'611.9
2017-Nov-15 12:00N 35°05' E 139°40'612.7
2017-Nov-15 11:30N 35°10' E 139°45'612.6
2017-Nov-15 11:00N 35°16' E 139°46'612.8
2017-Nov-15 10:30N 35°22' E 139°42'611.2
2017-Nov-15 10:00N 35°27' E 139°41'2 3.1
2017-Nov-15 09:30N 35°29' E 139°40'0 0.0
2017-Nov-15 09:00N 35°29' E 139°40'0 0.0
2017-Nov-15 08:30N 35°29' E 139°40'0 0.0
2017-Nov-15 08:00N 35°29' E 139°40'0 0.0
2017-Nov-15 07:30N 35°29' E 139°40'0 0.0
2017-Nov-15 07:00N 35°29' E 139°40'0 0.0
2017-Nov-15 06:30N 35°29' E 139°40'0 0.0
2017-Nov-15 06:00N 35°29' E 139°40'0 0.0
2017-Nov-15 05:30N 35°29' E 139°40'0 0.1
2017-Nov-15 05:00N 35°29' E 139°40'3 5.2
2017-Nov-15 04:31N 35°26' E 139°42'1 1.5
2017-Nov-15 03:59N 35°26' E 139°42'0 0.0
2017-Nov-15 03:29N 35°26' E 139°42'0 0.0
2017-Nov-15 02:59N 35°26' E 139°42'0 0.1
2017-Nov-15 02:29N 35°26' E 139°42'0 0.1
2017-Nov-15 01:59N 35°26' E 139°42'0 0.1
2017-Nov-15 01:29N 35°26' E 139°42'0 0.0
2017-Nov-15 00:59N 35°26' E 139°42'0 0.1
2017-Nov-15 00:29N 35°26' E 139°42'0 0.1
2017-Nov-14 23:59N 35°26' E 139°42'0 0.1
2017-Nov-14 23:29N 35°26' E 139°42'0 0.0
2017-Nov-14 22:59N 35°26' E 139°42'0 0.0
2017-Nov-14 22:29N 35°26' E 139°42'0 0.8
2017-Nov-14 22:00N 35°26' E 139°41'0 0.3
2017-Nov-14 21:30N 35°26' E 139°41'0 0.0
2017-Nov-14 21:00N 35°26' E 139°41'0 0.0
2017-Nov-14 20:30N 35°26' E 139°41'0 0.0
2017-Nov-14 20:00N 35°26' E 139°41'0 0.0
2017-Nov-14 19:30N 35°26' E 139°41'0 0.0
2017-Nov-14 19:00N 35°26' E 139°41'0 0.0
2017-Nov-14 18:30N 35°26' E 139°41'0 0.0
2017-Nov-14 18:00N 35°26' E 139°41'0 0.0
2017-Nov-14 17:30N 35°26' E 139°41'0 0.0
2017-Nov-14 17:00N 35°26' E 139°41'0 0.0
2017-Nov-14 16:30N 35°26' E 139°41'0 0.0
2017-Nov-14 16:00N 35°26' E 139°41'0 0.0
2017-Nov-14 15:30N 35°26' E 139°41'0 0.0
2017-Nov-14 15:00N 35°26' E 139°41'0 0.0
2017-Nov-14 14:30N 35°26' E 139°41'0 0.0
2017-Nov-14 14:00N 35°26' E 139°41'0 0.0
2017-Nov-14 13:30N 35°26' E 139°41'0 0.0
2017-Nov-14 13:00N 35°26' E 139°41'0 0.0
2017-Nov-14 12:30N 35°26' E 139°41'0 0.0
2017-Nov-14 12:00N 35°26' E 139°41'0 0.0
2017-Nov-14 11:30N 35°26' E 139°41'0 0.0
2017-Nov-14 11:00N 35°26' E 139°41'0 0.0
2017-Nov-14 10:30N 35°26' E 139°41'0 0.0
2017-Nov-14 10:00N 35°26' E 139°41'0 0.0
2017-Nov-14 09:30N 35°26' E 139°41'0 0.0
2017-Nov-14 09:00N 35°26' E 139°41'0 0.0
2017-Nov-14 08:30N 35°26' E 139°41'0 0.0
2017-Nov-14 08:00N 35°26' E 139°41'0 0.0
2017-Nov-14 07:27N 35°26' E 139°41'0 0.0
2017-Nov-14 07:00N 35°26' E 139°41'0 0.0
2017-Nov-14 06:30N 35°26' E 139°41'0 0.0
2017-Nov-14 06:00N 35°26' E 139°41'0 0.0
2017-Nov-14 05:30N 35°26' E 139°41'0 0.1
2017-Nov-14 05:00N 35°26' E 139°41'1 1.4
2017-Nov-14 04:29N 35°25' E 139°42'0 0.0
2017-Nov-14 03:59N 35°25' E 139°42'0 0.1
2017-Nov-14 03:31N 35°25' E 139°42'3 6.2
2017-Nov-14 03:01N 35°22' E 139°43'612.1
2017-Nov-14 02:30N 35°17' E 139°46'611.4
2017-Nov-14 02:01N 35°11' E 139°47'611.4
2017-Nov-14 01:31N 35°06' E 139°43'611.3
2017-Nov-14 01:00N 35°02' E 139°39'611.5
2017-Nov-14 00:31N 34°58' E 139°34'23410.3
2017-Nov-13 01:50N 34°02' E 134°58'512.9
2017-Nov-13 01:29N 34°07' E 134°58'612.9
2017-Nov-13 01:01N 34°13' E 134°59'713.0
2017-Nov-13 00:30N 34°19' E 134°59'712.5
2017-Nov-12 23:58N 34°26' E 135°01'612.1
2017-Nov-12 23:30N 34°31' E 135°02'510.2
2017-Nov-12 23:00N 34°36' E 135°02'611.8
2017-Nov-12 22:29N 34°37' E 134°55'611.9
2017-Nov-12 22:00N 34°38' E 134°48'611.8
2017-Nov-12 21:30N 34°40' E 134°41'6 0.2
2017-Nov-11 19:38N 34°39' E 134°49'5 8.8
2017-Nov-11 19:03N 34°37' E 134°55'0 8.9
2017-Nov-11 19:00N 34°37' E 134°55'5 9.1
2017-Nov-11 18:25N 34°37' E 135°02'512.3
2017-Nov-11 18:00N 34°36' E 135°08'713.3
2017-Nov-11 17:30N 34°36' E 135°16'612.1
2017-Nov-11 17:00N 34°38' E 135°23'4 5.6
2017-Nov-11 16:19N 34°40' E 135°27'0 0.0
2017-Nov-11 15:55N 34°40' E 135°27'0 0.0
2017-Nov-11 15:19N 34°40' E 135°27'0 0.0
2017-Nov-11 14:55N 34°40' E 135°27'0 0.0
2017-Nov-11 14:25N 34°40' E 135°27'0 0.0
2017-Nov-11 13:55N 34°40' E 135°27'0 0.0
2017-Nov-11 13:25N 34°40' E 135°27'0 0.0
2017-Nov-11 12:49N 34°40' E 135°27'0 0.0
2017-Nov-11 12:19N 34°40' E 135°27'0 0.0
2017-Nov-11 11:55N 34°40' E 135°27'0 0.0
2017-Nov-11 11:25N 34°40' E 135°27'0 0.0
2017-Nov-11 10:55N 34°40' E 135°27'0 0.0
2017-Nov-11 10:07N 34°40' E 135°27'0 0.0
2017-Nov-11 09:37N 34°40' E 135°27'0 0.0
2017-Nov-11 09:19N 34°40' E 135°27'0 0.0
2017-Nov-11 08:55N 34°40' E 135°27'0 0.0
2017-Nov-11 06:40N 34°40' E 135°27'0 0.6
2017-Nov-11 06:29N 34°40' E 135°27'2 4.9
2017-Nov-11 06:00N 34°39' E 135°24'510.2
2017-Nov-11 05:30N 34°35' E 135°20'611.7
2017-Nov-11 05:00N 34°31' E 135°15'611.9
2017-Nov-11 04:30N 34°27' E 135°10'712.5
2017-Nov-11 03:58N 34°22' E 135°04'612.7
2017-Nov-11 03:29N 34°17' E 134°59'611.5
2017-Nov-11 02:59N 34°15' E 135°06'2 3.9
2017-Nov-11 02:28N 34°14' E 135°08'0 0.0
2017-Nov-11 01:58N 34°14' E 135°08'0 0.0
2017-Nov-11 01:28N 34°14' E 135°08'0 0.0
2017-Nov-11 00:58N 34°14' E 135°08'0 0.0
2017-Nov-11 00:28N 34°14' E 135°08'0 0.0
2017-Nov-10 23:58N 34°14' E 135°08'0 0.0
2017-Nov-10 23:28N 34°14' E 135°08'0 0.0
2017-Nov-10 22:58N 34°14' E 135°08'0 0.0
2017-Nov-10 22:28N 34°14' E 135°08'0 0.0
2017-Nov-10 21:58N 34°14' E 135°08'0 0.0
2017-Nov-10 21:28N 34°14' E 135°08'0 0.0
2017-Nov-10 20:58N 34°14' E 135°08'0 0.0
2017-Nov-10 20:30N 34°14' E 135°08'0 0.0
2017-Nov-10 20:00N 34°14' E 135°08'0 0.0
2017-Nov-10 19:30N 34°14' E 135°08'0 0.0
2017-Nov-10 19:00N 34°14' E 135°08'0 0.0
2017-Nov-10 18:30N 34°14' E 135°08'0 0.0
2017-Nov-10 18:00N 34°14' E 135°08'0 0.0
2017-Nov-10 17:30N 34°14' E 135°08'0 0.0
2017-Nov-10 16:57N 34°14' E 135°08'0 0.0
2017-Nov-10 16:30N 34°14' E 135°08'0 0.0
2017-Nov-10 16:00N 34°14' E 135°08'0 0.1
2017-Nov-10 15:30N 34°14' E 135°08'0 0.1
2017-Nov-10 15:00N 34°14' E 135°08'0 0.0
2017-Nov-10 14:30N 34°14' E 135°08'0 0.0
2017-Nov-10 14:00N 34°14' E 135°08'0 0.0
2017-Nov-10 13:30N 34°14' E 135°08'0 0.0
2017-Nov-10 13:00N 34°14' E 135°08'0 0.0
2017-Nov-10 12:30N 34°14' E 135°08'0 0.0
2017-Nov-10 12:00N 34°14' E 135°08'0 0.0
2017-Nov-10 11:30N 34°14' E 135°08'0 0.0
2017-Nov-10 11:00N 34°14' E 135°08'0 0.0
2017-Nov-10 10:24N 34°14' E 135°08'0 0.0
2017-Nov-10 10:00N 34°14' E 135°08'0 0.0
2017-Nov-10 09:30N 34°14' E 135°08'0 0.1
2017-Nov-10 09:00N 34°14' E 135°08'0 0.1
2017-Nov-10 08:30N 34°14' E 135°08'0 0.0
2017-Nov-10 08:00N 34°14' E 135°08'0 0.0
2017-Nov-10 07:30N 34°14' E 135°08'0 0.0
2017-Nov-10 07:00N 34°14' E 135°08'0 0.0
2017-Nov-10 06:30N 34°14' E 135°08'0 0.0
2017-Nov-10 06:00N 34°14' E 135°08'0 0.0
2017-Nov-10 05:30N 34°14' E 135°08'0 0.0
2017-Nov-10 05:00N 34°14' E 135°08'0 0.0
2017-Nov-10 04:30N 34°14' E 135°08'0 0.0
2017-Nov-10 04:00N 34°14' E 135°08'0 0.0
2017-Nov-10 03:30N 34°14' E 135°08'0 0.0
2017-Nov-10 03:00N 34°14' E 135°08'0 0.0
2017-Nov-10 02:30N 34°14' E 135°08'0 0.3
2017-Nov-10 02:00N 34°14' E 135°08'3 5.2
2017-Nov-10 01:31N 34°14' E 135°05'2 4.4
2017-Nov-10 01:00N 34°12' E 135°05'  
Track history (hours):
 
Tides and Currents Weather Stations Pressure Air Temp Water Temp Dewpoint Dewpoint Depression Visibility Wind Speed Wind Dir Waves Ship Positions

Sumise Maru No.8

Last reported at 2017-Nov-20 00:30 UTC. Time now 2017-Nov-22 18:05 UTC.
Position N 35°18' E 139°45'.

Length 99 m; draft 7.2 m.

Type: Cargo ship. MMSI: 431401788.

Date/timePositionNaut miles runAvg speedWind from/ knotsBaromVisibWave heightAir tempDewpointWater temp
2017-Nov-20 00:30N 35°18' E 139°45'510.6
2017-Nov-20 00:00N 35°13' E 139°47'611.5
2017-Nov-19 23:30N 35°07' E 139°44'612.2
2017-Nov-19 23:00N 35°02' E 139°40'612.1
2017-Nov-19 22:30N 34°58' E 139°34'23410.8
2017-Nov-19 00:51N 33°58' E 135°00'412.7
2017-Nov-19 00:30N 34°02' E 135°01'612.0
2017-Nov-19 00:01N 34°08' E 135°02'611.6
2017-Nov-18 23:30N 34°14' E 135°05'2 4.3
2017-Nov-18 22:58N 34°14' E 135°08'0 0.1
2017-Nov-18 22:28N 34°14' E 135°08'0 0.0
2017-Nov-18 21:58N 34°14' E 135°08'0 0.0
2017-Nov-18 21:28N 34°14' E 135°08'0 0.0
2017-Nov-18 20:58N 34°14' E 135°08'0 0.0
2017-Nov-18 20:28N 34°14' E 135°08'0 0.0
2017-Nov-18 19:58N 34°14' E 135°08'0 0.0
2017-Nov-18 19:30N 34°14' E 135°08'0 0.1
2017-Nov-18 19:00N 34°14' E 135°08'2 4.5
2017-Nov-18 18:30N 34°15' E 135°05'2 4.3
2017-Nov-18 18:00N 34°14' E 135°03'1 2.2
2017-Nov-18 17:30N 34°13' E 135°03'3 5.3
2017-Nov-18 17:01N 34°14' E 135°00'4 8.0
2017-Nov-18 16:30N 34°18' E 134°58'5 9.3
2017-Nov-18 16:00N 34°22' E 134°60'713.3
2017-Nov-18 15:30N 34°29' E 135°01'713.6
2017-Nov-18 15:00N 34°36' E 135°03'713.2
2017-Nov-18 14:30N 34°37' E 134°55'713.4
2017-Nov-18 14:00N 34°39' E 134°47'6 0.4
2017-Nov-17 21:40N 34°37' E 134°54'215.3
2017-Nov-17 21:30N 34°38' E 134°57'715.0
2017-Nov-17 21:00N 34°36' E 135°06'713.7
2017-Nov-17 20:30N 34°36' E 135°15'612.4
2017-Nov-17 20:00N 34°37' E 135°22'5 9.4
2017-Nov-17 19:30N 34°40' E 135°27'0 0.2
2017-Nov-17 18:56N 34°40' E 135°27'0 0.0
2017-Nov-17 18:26N 34°40' E 135°27'0 0.0
2017-Nov-17 17:56N 34°40' E 135°27'0 0.0
2017-Nov-17 17:26N 34°40' E 135°27'0 0.0
2017-Nov-17 16:56N 34°40' E 135°27'0 0.0
2017-Nov-17 16:26N 34°40' E 135°27'0 0.0
2017-Nov-17 15:44N 34°40' E 135°27'0 0.0
2017-Nov-17 15:26N 34°40' E 135°27'0 0.0
2017-Nov-17 14:02N 34°40' E 135°27'0 0.0
2017-Nov-17 13:56N 34°40' E 135°27'0 0.0
2017-Nov-17 13:26N 34°40' E 135°27'0 0.0
2017-Nov-17 12:08N 34°40' E 135°27'0 0.0
2017-Nov-17 11:44N 34°40' E 135°27'0 0.0
2017-Nov-17 11:20N 34°40' E 135°27'0 0.0
2017-Nov-17 10:32N 34°40' E 135°27'0 0.0
2017-Nov-17 10:26N 34°40' E 135°27'0 0.0
2017-Nov-17 09:56N 34°40' E 135°27'0 0.0
2017-Nov-17 09:30N 34°40' E 135°27'0 0.0
2017-Nov-17 09:01N 34°40' E 135°27'3 5.3
2017-Nov-17 08:30N 34°39' E 135°24'511.0
2017-Nov-17 08:00N 34°36' E 135°18'612.1
2017-Nov-17 07:31N 34°35' E 135°11'612.8
2017-Nov-17 07:01N 34°36' E 135°03'712.2
2017-Nov-17 06:29N 34°37' E 134°56'1 0.1
2017-Nov-16 16:17N 34°37' E 134°55'411.7
2017-Nov-16 15:59N 34°38' E 134°59'4 9.0
2017-Nov-16 15:31N 34°36' E 135°04'5 9.9
2017-Nov-16 15:00N 34°31' E 135°04'612.4
2017-Nov-16 14:30N 34°25' E 135°02'711.9
2017-Nov-16 13:53N 34°18' E 134°59'411.0
2017-Nov-16 13:30N 34°14' E 134°59'612.4
2017-Nov-16 13:00N 34°08' E 134°59'712.4
2017-Nov-16 12:27N 34°01' E 134°59'224 9.8
2017-Nov-15 13:36N 34°53' E 139°23'311.6
2017-Nov-15 13:23N 34°54' E 139°25'411.6
2017-Nov-15 13:00N 34°57' E 139°29'611.7
2017-Nov-15 12:30N 35°00' E 139°35'611.9
2017-Nov-15 12:00N 35°05' E 139°40'612.7
2017-Nov-15 11:30N 35°10' E 139°45'612.6
2017-Nov-15 11:00N 35°16' E 139°46'612.8
2017-Nov-15 10:30N 35°22' E 139°42'611.2
2017-Nov-15 10:00N 35°27' E 139°41'2 3.1
2017-Nov-15 09:30N 35°29' E 139°40'0 0.0
2017-Nov-15 09:00N 35°29' E 139°40'0 0.0
2017-Nov-15 08:30N 35°29' E 139°40'0 0.0
2017-Nov-15 08:00N 35°29' E 139°40'0 0.0
2017-Nov-15 07:30N 35°29' E 139°40'0 0.0
2017-Nov-15 07:00N 35°29' E 139°40'0 0.0
2017-Nov-15 06:30N 35°29' E 139°40'0 0.0
2017-Nov-15 06:00N 35°29' E 139°40'0 0.0
2017-Nov-15 05:30N 35°29' E 139°40'0 0.1
2017-Nov-15 05:00N 35°29' E 139°40'3 5.2
2017-Nov-15 04:31N 35°26' E 139°42'1 1.5
2017-Nov-15 03:59N 35°26' E 139°42'0 0.0
2017-Nov-15 03:29N 35°26' E 139°42'0 0.0
2017-Nov-15 02:59N 35°26' E 139°42'0 0.1
2017-Nov-15 02:29N 35°26' E 139°42'0 0.1
2017-Nov-15 01:59N 35°26' E 139°42'0 0.1
2017-Nov-15 01:29N 35°26' E 139°42'0 0.0
2017-Nov-15 00:59N 35°26' E 139°42'0 0.1
2017-Nov-15 00:29N 35°26' E 139°42'0 0.1
2017-Nov-14 23:59N 35°26' E 139°42'0 0.1
2017-Nov-14 23:29N 35°26' E 139°42'0 0.0
2017-Nov-14 22:59N 35°26' E 139°42'0 0.0
2017-Nov-14 22:29N 35°26' E 139°42'0 0.8
2017-Nov-14 22:00N 35°26' E 139°41'0 0.3
2017-Nov-14 21:30N 35°26' E 139°41'0 0.0
2017-Nov-14 21:00N 35°26' E 139°41'0 0.0
2017-Nov-14 20:30N 35°26' E 139°41'0 0.0
2017-Nov-14 20:00N 35°26' E 139°41'0 0.0
2017-Nov-14 19:30N 35°26' E 139°41'0 0.0
2017-Nov-14 19:00N 35°26' E 139°41'0 0.0
2017-Nov-14 18:30N 35°26' E 139°41'0 0.0
2017-Nov-14 18:00N 35°26' E 139°41'0 0.0
2017-Nov-14 17:30N 35°26' E 139°41'0 0.0
2017-Nov-14 17:00N 35°26' E 139°41'0 0.0
2017-Nov-14 16:30N 35°26' E 139°41'0 0.0
2017-Nov-14 16:00N 35°26' E 139°41'0 0.0
2017-Nov-14 15:30N 35°26' E 139°41'0 0.0
2017-Nov-14 15:00N 35°26' E 139°41'0 0.0
2017-Nov-14 14:30N 35°26' E 139°41'0 0.0
2017-Nov-14 14:00N 35°26' E 139°41'0 0.0
2017-Nov-14 13:30N 35°26' E 139°41'0 0.0
2017-Nov-14 13:00N 35°26' E 139°41'0 0.0
2017-Nov-14 12:30N 35°26' E 139°41'0 0.0
2017-Nov-14 12:00N 35°26' E 139°41'0 0.0
2017-Nov-14 11:30N 35°26' E 139°41'0 0.0
2017-Nov-14 11:00N 35°26' E 139°41'0 0.0
2017-Nov-14 10:30N 35°26' E 139°41'0 0.0
2017-Nov-14 10:00N 35°26' E 139°41'0 0.0
2017-Nov-14 09:30N 35°26' E 139°41'0 0.0
2017-Nov-14 09:00N 35°26' E 139°41'0 0.0
2017-Nov-14 08:30N 35°26' E 139°41'0 0.0
2017-Nov-14 08:00N 35°26' E 139°41'0 0.0
2017-Nov-14 07:27N 35°26' E 139°41'0 0.0
2017-Nov-14 07:00N 35°26' E 139°41'0 0.0
2017-Nov-14 06:30N 35°26' E 139°41'0 0.0
2017-Nov-14 06:00N 35°26' E 139°41'0 0.0
2017-Nov-14 05:30N 35°26' E 139°41'0 0.1
2017-Nov-14 05:00N 35°26' E 139°41'1 1.4
2017-Nov-14 04:29N 35°25' E 139°42'0 0.0
2017-Nov-14 03:59N 35°25' E 139°42'0 0.1
2017-Nov-14 03:31N 35°25' E 139°42'3 6.2
2017-Nov-14 03:01N 35°22' E 139°43'612.1
2017-Nov-14 02:30N 35°17' E 139°46'611.4
2017-Nov-14 02:01N 35°11' E 139°47'611.4
2017-Nov-14 01:31N 35°06' E 139°43'611.3
2017-Nov-14 01:00N 35°02' E 139°39'611.5
2017-Nov-14 00:31N 34°58' E 139°34'23410.3
2017-Nov-13 01:50N 34°02' E 134°58'512.9
2017-Nov-13 01:29N 34°07' E 134°58'612.9
2017-Nov-13 01:01N 34°13' E 134°59'713.0
2017-Nov-13 00:30N 34°19' E 134°59'712.5
2017-Nov-12 23:58N 34°26' E 135°01'612.1
2017-Nov-12 23:30N 34°31' E 135°02'510.2
2017-Nov-12 23:00N 34°36' E 135°02'611.8
2017-Nov-12 22:29N 34°37' E 134°55'611.9
2017-Nov-12 22:00N 34°38' E 134°48'611.8
2017-Nov-12 21:30N 34°40' E 134°41'6 0.2
2017-Nov-11 19:38N 34°39' E 134°49'5 8.8
2017-Nov-11 19:03N 34°37' E 134°55'0 8.9
2017-Nov-11 19:00N 34°37' E 134°55'5 9.1
2017-Nov-11 18:25N 34°37' E 135°02'512.3
2017-Nov-11 18:00N 34°36' E 135°08'713.3
2017-Nov-11 17:30N 34°36' E 135°16'612.1
2017-Nov-11 17:00N 34°38' E 135°23'4 5.6
2017-Nov-11 16:19N 34°40' E 135°27'0 0.0
2017-Nov-11 15:55N 34°40' E 135°27'0 0.0
2017-Nov-11 15:19N 34°40' E 135°27'0 0.0
2017-Nov-11 14:55N 34°40' E 135°27'0 0.0
2017-Nov-11 14:25N 34°40' E 135°27'0 0.0
2017-Nov-11 13:55N 34°40' E 135°27'0 0.0
2017-Nov-11 13:25N 34°40' E 135°27'0 0.0
2017-Nov-11 12:49N 34°40' E 135°27'0 0.0
2017-Nov-11 12:19N 34°40' E 135°27'0 0.0
2017-Nov-11 11:55N 34°40' E 135°27'0 0.0
2017-Nov-11 11:25N 34°40' E 135°27'0 0.0
2017-Nov-11 10:55N 34°40' E 135°27'0 0.0
2017-Nov-11 10:07N 34°40' E 135°27'0 0.0
2017-Nov-11 09:37N 34°40' E 135°27'0 0.0
2017-Nov-11 09:19N 34°40' E 135°27'0 0.0
2017-Nov-11 08:55N 34°40' E 135°27'0 0.0
2017-Nov-11 06:40N 34°40' E 135°27'0 0.6
2017-Nov-11 06:29N 34°40' E 135°27'2 4.9
2017-Nov-11 06:00N 34°39' E 135°24'510.2
2017-Nov-11 05:30N 34°35' E 135°20'611.7
2017-Nov-11 05:00N 34°31' E 135°15'611.9
2017-Nov-11 04:30N 34°27' E 135°10'712.5
2017-Nov-11 03:58N 34°22' E 135°04'612.7
2017-Nov-11 03:29N 34°17' E 134°59'611.5
2017-Nov-11 02:59N 34°15' E 135°06'2 3.9
2017-Nov-11 02:28N 34°14' E 135°08'0 0.0
2017-Nov-11 01:58N 34°14' E 135°08'0 0.0
2017-Nov-11 01:28N 34°14' E 135°08'0 0.0
2017-Nov-11 00:58N 34°14' E 135°08'0 0.0
2017-Nov-11 00:28N 34°14' E 135°08'0 0.0
2017-Nov-10 23:58N 34°14' E 135°08'0 0.0
2017-Nov-10 23:28N 34°14' E 135°08'0 0.0
2017-Nov-10 22:58N 34°14' E 135°08'0 0.0
2017-Nov-10 22:28N 34°14' E 135°08'0 0.0
2017-Nov-10 21:58N 34°14' E 135°08'0 0.0
2017-Nov-10 21:28N 34°14' E 135°08'0 0.0
2017-Nov-10 20:58N 34°14' E 135°08'0 0.0
2017-Nov-10 20:30N 34°14' E 135°08'0 0.0
2017-Nov-10 20:00N 34°14' E 135°08'0 0.0
2017-Nov-10 19:30N 34°14' E 135°08'0 0.0
2017-Nov-10 19:00N 34°14' E 135°08'0 0.0
2017-Nov-10 18:30N 34°14' E 135°08'0 0.0
2017-Nov-10 18:00N 34°14' E 135°08'0 0.0
2017-Nov-10 17:30N 34°14' E 135°08'0 0.0
2017-Nov-10 16:57N 34°14' E 135°08'0 0.0
2017-Nov-10 16:30N 34°14' E 135°08'0 0.0
2017-Nov-10 16:00N 34°14' E 135°08'0 0.1
2017-Nov-10 15:30N 34°14' E 135°08'0 0.1
2017-Nov-10 15:00N 34°14' E 135°08'0 0.0
2017-Nov-10 14:30N 34°14' E 135°08'0 0.0
2017-Nov-10 14:00N 34°14' E 135°08'0 0.0
2017-Nov-10 13:30N 34°14' E 135°08'0 0.0
2017-Nov-10 13:00N 34°14' E 135°08'0 0.0
2017-Nov-10 12:30N 34°14' E 135°08'0 0.0
2017-Nov-10 12:00N 34°14' E 135°08'0 0.0
2017-Nov-10 11:30N 34°14' E 135°08'0 0.0
2017-Nov-10 11:00N 34°14' E 135°08'0 0.0
2017-Nov-10 10:24N 34°14' E 135°08'0 0.0
2017-Nov-10 10:00N 34°14' E 135°08'0 0.0
2017-Nov-10 09:30N 34°14' E 135°08'0 0.1
2017-Nov-10 09:00N 34°14' E 135°08'0 0.1
2017-Nov-10 08:30N 34°14' E 135°08'0 0.0
2017-Nov-10 08:00N 34°14' E 135°08'0 0.0
2017-Nov-10 07:30N 34°14' E 135°08'0 0.0
2017-Nov-10 07:00N 34°14' E 135°08'0 0.0
2017-Nov-10 06:30N 34°14' E 135°08'0 0.0
2017-Nov-10 06:00N 34°14' E 135°08'0 0.0
2017-Nov-10 05:30N 34°14' E 135°08'0 0.0
2017-Nov-10 05:00N 34°14' E 135°08'0 0.0
2017-Nov-10 04:30N 34°14' E 135°08'0 0.0
2017-Nov-10 04:00N 34°14' E 135°08'0 0.0
2017-Nov-10 03:30N 34°14' E 135°08'0 0.0
2017-Nov-10 03:00N 34°14' E 135°08'0 0.0
2017-Nov-10 02:30N 34°14' E 135°08'0 0.3
2017-Nov-10 02:00N 34°14' E 135°08'3 5.2
2017-Nov-10 01:31N 34°14' E 135°05'2 4.4
2017-Nov-10 01:00N 34°12' E 135°05'  

Dump ship's entire track history